Time,TemperatureF,DewpointF,PressureIn,WindDirection,WindDirectionDegrees,WindSpeedMPH,WindSpeedGustMPH,Humidity,HourlyPrecipIn,Conditions,Clouds,dailyrainin,SoftwareType,DateUTC
2013-01-09 00:02:00,45.5,38.0,29.89,SE,135,0.2,0.0,75,0.00,CLR,,0.00,WeatherDisplay:10.37,2013-01-09 08:02:00,
2013-01-09 00:07:00,45.5,38.0,29.89,SE,135,0.2,0.0,75,0.00,CLR,,0.00,WeatherDisplay:10.37,2013-01-09 08:07:00,
2013-01-09 00:12:00,45.0,37.5,29.89,SSW,202,0.8,2.3,75,0.00,CLR,,0.00,WeatherDisplay:10.37,2013-01-09 08:12:00,
2013-01-09 00:17:00,45.7,38.9,29.89,SW,225,2.6,6.9,77,0.00,CLR,,0.00,WeatherDisplay:10.37,2013-01-09 08:17:00,
2013-01-09 00:22:00,47.7,40.1,29.88,SSW,202,4.7,6.9,75,0.00,CLR,,0.00,WeatherDisplay:10.37,2013-01-09 08:22:00,
2013-01-09 00:27:00,48.6,40.3,29.88,SSW,202,4.7,4.7,73,0.00,CLR,,0.00,WeatherDisplay:10.37,2013-01-09 08:27:00,
2013-01-09 00:32:00,49.8,40.8,29.88,SW,225,4.3,4.6,71,0.00,CLR,,0.00,WeatherDisplay:10.37,2013-01-09 08:32:00,
2013-01-09 00:37:00,50.4,40.9,29.88,SW,225,4.4,6.9,70,0.00,CLR,,0.00,WeatherDisplay:10.37,2013-01-09 08:37:00,
2013-01-09 00:42:00,51.3,40.7,29.87,SW,225,5.1,8.1,67,0.00,CLR,,0.00,WeatherDisplay:10.37,2013-01-09 08:42:00,
2013-01-09 00:47:00,51.6,40.6,29.87,SW,225,5.6,8.1,66,0.00,CLR,,0.00,WeatherDisplay:10.37,2013-01-09 08:47:00,
2013-01-09 00:52:00,52.2,40.7,29.87,SW,225,4.7,6.9,65,0.00,CLR,,0.00,WeatherDisplay:10.37,2013-01-09 08:52:00,
2013-01-09 00:57:00,52.3,40.5,29.87,SW,225,5.2,9.2,64,0.00,CLR,,0.00,WeatherDisplay:10.37,2013-01-09 08:57:00,
2013-01-09 01:02:00,52.7,40.9,29.87,SSW,202,5.8,5.8,64,0.00,CLR,,0.00,WeatherDisplay:10.37,2013-01-09 09:02:00,
2013-01-09 01:07:00,52.5,40.3,29.87,SSE,158,4.6,5.8,63,0.00,CLR,,0.00,WeatherDisplay:10.37,2013-01-09 09:07:00,
2013-01-09 01:12:00,52.3,40.1,29.87,SE,135,3.5,4.6,63,0.00,CLR,,0.00,WeatherDisplay:10.37,2013-01-09 09:12:00,
2013-01-09 01:17:00,52.2,39.9,29.87,ESE,112,3.1,3.5,63,0.00,CLR,,0.00,WeatherDisplay:10.37,2013-01-09 09:17:00,
2013-01-09 01:22:00,50.9,39.1,29.87,East,90,1.8,2.3,64,0.00,CLR,,0.00,WeatherDisplay:10.37,2013-01-09 09:22:00,
2013-01-09 01:27:00,50.2,38.9,29.87,East,90,1.4,2.3,65,0.00,CLR,,0.00,WeatherDisplay:10.37,2013-01-09 09:27:00,
2013-01-09 01:32:00,49.1,38.2,29.87,SE,135,2.3,5.8,66,0.00,CLR,,0.00,WeatherDisplay:10.37,2013-01-09 09:32:00,
2013-01-09 01:37:00,48.4,37.9,29.87,ESE,112,2.5,2.5,67,0.00,CLR,,0.00,WeatherDisplay:10.37,2013-01-09 09:37:00,
2013-01-09 02:23:00,50.0,39.1,29.85,East,90,3.1,6.9,66,0.00,CLR,,0.00,WeatherDisplay:10.37,2013-01-09 10:23:00,
2013-01-09 02:28:00,49.8,38.9,29.85,East,90,2.8,2.8,66,0.00,CLR,,0.00,WeatherDisplay:10.37,2013-01-09 10:28:00,
2013-01-09 02:33:00,49.1,38.2,29.85,ENE,68,2.0,3.5,66,0.00,CLR,,0.00,WeatherDisplay:10.37,2013-01-09 10:33:00,
2013-01-09 02:38:00,48.7,37.9,29.85,East,90,2.2,2.3,66,0.00,CLR,,0.00,WeatherDisplay:10.37,2013-01-09 10:38:00,
2013-01-09 02:43:00,48.6,38.1,29.87,East,90,3.0,3.5,67,0.00,CLR,,0.00,WeatherDisplay:10.37,2013-01-09 10:43:00,
2013-01-09 02:48:00,48.4,37.9,29.87,East,90,2.6,3.5,67,0.00,CLR,,0.00,WeatherDisplay:10.37,2013-01-09 10:48:00,
2013-01-09 02:53:00,48.4,38.3,29.87,ENE,68,3.1,4.6,68,0.00,CLR,,0.00,WeatherDisplay:10.37,2013-01-09 10:53:00,
2013-01-09 02:58:00,48.2,38.1,29.87,East,90,3.5,4.6,68,0.00,CLR,,0.00,WeatherDisplay:10.37,2013-01-09 10:58:00,
2013-01-09 03:03:00,48.4,38.3,29.84,East,90,3.2,4.6,68,0.00,CLR,,0.00,WeatherDisplay:10.37,2013-01-09 11:03:00,
2013-01-09 03:08:00,48.4,38.3,29.84,East,90,3.2,4.6,68,0.00,CLR,,0.00,WeatherDisplay:10.37,2013-01-09 11:08:00,
2013-01-09 03:13:00,48.0,38.0,29.84,ENE,68,2.4,4.6,68,0.00,CLR,,0.00,WeatherDisplay:10.37,2013-01-09 11:13:00,
2013-01-09 03:18:00,48.0,38.0,29.84,East,90,2.0,2.3,68,0.00,CLR,,0.00,WeatherDisplay:10.37,2013-01-09 11:18:00,
2013-01-09 03:23:00,47.7,37.6,29.84,East,90,2.0,3.5,68,0.00,CLR,,0.00,WeatherDisplay:10.37,2013-01-09 11:23:00,
2013-01-09 03:28:00,47.5,37.4,29.84,East,90,2.2,2.3,68,0.00,CLR,,0.00,WeatherDisplay:10.37,2013-01-09 11:28:00,
2013-01-09 03:33:00,47.3,37.6,29.84,East,90,2.3,2.3,69,0.00,CLR,,0.00,WeatherDisplay:10.37,2013-01-09 11:33:00,
2013-01-09 03:38:00,47.3,37.6,29.84,ESE,112,2.1,2.3,69,0.00,CLR,,0.00,WeatherDisplay:10.37,2013-01-09 11:38:00,
2013-01-09 03:43:00,47.1,37.5,29.83,ESE,112,2.0,2.3,69,0.00,CLR,,0.00,WeatherDisplay:10.37,2013-01-09 11:43:00,
2013-01-09 03:48:00,47.1,37.5,29.83,East,90,2.0,2.3,69,0.00,CLR,,0.00,WeatherDisplay:10.37,2013-01-09 11:48:00,
2013-01-09 03:53:00,46.9,37.3,29.83,ESE,112,1.7,2.3,69,0.00,CLR,,0.00,WeatherDisplay:10.37,2013-01-09 11:53:00,
2013-01-09 03:58:00,46.4,36.8,29.83,ESE,112,1.7,2.3,69,0.00,CLR,,0.00,WeatherDisplay:10.37,2013-01-09 11:58:00,
2013-01-09 04:03:00,46.4,37.1,29.82,SE,135,2.0,2.3,70,0.00,CLR,,0.00,WeatherDisplay:10.37,2013-01-09 12:03:00,
2013-01-09 04:08:00,46.6,37.3,29.82,ESE,112,2.1,2.3,70,0.00,CLR,,0.00,WeatherDisplay:10.37,2013-01-09 12:08:00,
2013-01-09 04:13:00,46.6,37.3,29.82,SE,135,2.0,2.3,70,0.00,CLR,,0.00,WeatherDisplay:10.37,2013-01-09 12:13:00,
2013-01-09 04:18:00,46.9,37.7,29.82,SE,135,1.7,1.7,70,0.00,CLR,,0.00,WeatherDisplay:10.37,2013-01-09 12:18:00,
2013-01-09 04:23:00,46.9,37.7,29.81,SE,135,1.4,2.3,70,0.00,CLR,,0.00,WeatherDisplay:10.37,2013-01-09 12:23:00,
2013-01-09 04:28:00,46.9,37.7,29.81,SE,135,1.7,2.3,70,0.00,CLR,,0.00,WeatherDisplay:10.37,2013-01-09 12:28:00,
2013-01-09 04:33:00,47.1,37.8,29.81,SE,135,2.4,4.6,70,0.00,CLR,,0.00,WeatherDisplay:10.37,2013-01-09 12:33:00,
2013-01-09 04:38:00,47.1,37.5,29.81,ESE,112,3.5,5.8,69,0.00,CLR,,0.00,WeatherDisplay:10.37,2013-01-09 12:38:00,
2013-01-09 04:43:00,47.8,38.2,29.78,SE,135,5.1,6.9,69,0.00,CLR,,0.00,WeatherDisplay:10.37,2013-01-09 12:43:00,
2013-01-09 04:48:00,48.0,38.0,29.78,SE,135,5.4,5.4,68,0.00,CLR,,0.00,WeatherDisplay:10.37,2013-01-09 12:48:00,
2013-01-09 04:53:00,48.4,37.9,29.78,SSE,158,4.9,5.8,67,0.00,CLR,,0.00,WeatherDisplay:10.37,2013-01-09 12:53:00,
2013-01-09 04:58:00,48.6,38.1,29.78,SE,135,5.4,5.8,67,0.00,CLR,,0.00,WeatherDisplay:10.37,2013-01-09 12:58:00,
2013-01-09 05:03:00,48.4,37.9,29.74,SE,135,5.9,9.2,67,0.00,CLR,,0.00,WeatherDisplay:10.37,2013-01-09 13:03:00,
2013-01-09 05:08:00,48.4,37.9,29.74,SSE,158,5.5,6.9,67,0.00,CLR,,0.00,WeatherDisplay:10.37,2013-01-09 13:08:00,
2013-01-09 05:13:00,48.4,37.9,29.74,SE,135,6.4,8.1,67,0.00,CLR,,0.00,WeatherDisplay:10.37,2013-01-09 13:13:00,
2013-01-09 05:18:00,48.4,37.9,29.74,SE,135,6.6,6.6,67,0.00,CLR,,0.00,WeatherDisplay:10.37,2013-01-09 13:18:00,
2013-01-09 05:23:00,48.4,37.5,29.72,SSE,158,5.9,9.2,66,0.00,CLR,,0.00,WeatherDisplay:10.37,2013-01-09 13:23:00,
2013-01-09 05:28:00,48.6,37.7,29.72,SSE,158,5.6,5.8,66,0.00,CLR,,0.00,WeatherDisplay:10.37,2013-01-09 13:28:00,
2013-01-09 05:33:00,48.7,37.9,29.72,SSE,158,4.7,5.8,66,0.00,CLR,,0.00,WeatherDisplay:10.37,2013-01-09 13:33:00,
2013-01-09 05:38:00,48.6,37.7,29.72,SSW,202,4.3,4.6,66,0.00,CLR,,0.00,WeatherDisplay:10.37,2013-01-09 13:38:00,
2013-01-09 05:43:00,48.7,37.9,29.72,SSE,158,4.1,6.9,66,0.00,CLR,,0.00,WeatherDisplay:10.37,2013-01-09 13:43:00,
2013-01-09 05:48:00,48.6,37.7,29.72,South,180,4.3,5.8,66,0.00,CLR,,0.00,WeatherDisplay:10.37,2013-01-09 13:48:00,
2013-01-09 05:53:00,48.4,37.5,29.72,South,180,4.1,5.2,66,0.00,CLR,,0.00,WeatherDisplay:10.37,2013-01-09 13:53:00,
2013-01-09 05:58:00,48.2,37.8,29.72,SSE,158,4.4,4.6,67,0.00,CLR,,0.00,WeatherDisplay:10.37,2013-01-09 13:58:00,
2013-01-09 06:03:00,48.4,37.9,29.71,SE,135,5.6,9.2,67,0.00,CLR,,0.00,WeatherDisplay:10.37,2013-01-09 14:03:00,
2013-01-09 06:08:00,48.4,37.9,29.71,SE,135,5.6,9.2,67,0.00,CLR,,0.00,WeatherDisplay:10.37,2013-01-09 14:08:00,
2013-01-09 06:13:00,48.0,37.6,29.71,SE,135,6.3,9.2,67,0.00,CLR,,0.00,WeatherDisplay:10.37,2013-01-09 14:13:00,
2013-01-09 06:18:00,48.0,37.6,29.71,SE,135,6.2,8.1,67,0.00,CLR,,0.00,WeatherDisplay:10.37,2013-01-09 14:18:00,
2013-01-09 06:23:00,47.8,37.4,29.70,SSW,202,5.2,5.2,67,0.00,CLR,,0.00,WeatherDisplay:10.37,2013-01-09 14:23:00,
2013-01-09 06:28:00,48.0,37.6,29.70,SE,135,4.5,5.8,67,0.00,CLR,,0.00,WeatherDisplay:10.37,2013-01-09 14:28:00,
2013-01-09 06:33:00,47.8,37.4,29.70,ESE,112,4.4,6.9,67,0.00,CLR,,0.00,WeatherDisplay:10.37,2013-01-09 14:33:00,
2013-01-09 06:38:00,48.0,37.6,29.70,East,90,4.9,4.9,67,0.00,CLR,,0.00,WeatherDisplay:10.37,2013-01-09 14:38:00,
2013-01-09 06:43:00,48.2,37.8,29.70,SE,135,5.2,5.8,67,0.00,CLR,,0.00,WeatherDisplay:10.37,2013-01-09 14:43:00,
2013-01-09 06:48:00,48.4,37.9,29.70,ESE,112,4.7,6.9,67,0.00,CLR,,0.00,WeatherDisplay:10.37,2013-01-09 14:48:00,
2013-01-09 06:53:00,48.4,37.5,29.70,SE,135,4.0,4.6,66,0.00,CLR,,0.00,WeatherDisplay:10.37,2013-01-09 14:53:00,
2013-01-09 06:58:00,48.4,37.5,29.70,East,90,4.3,4.6,66,0.00,CLR,,0.00,WeatherDisplay:10.37,2013-01-09 14:58:00,
2013-01-09 07:03:00,48.6,37.7,29.68,SE,135,3.7,3.7,66,0.00,CLR,,0.00,WeatherDisplay:10.37,2013-01-09 15:03:00,
2013-01-09 07:08:00,48.7,37.9,29.68,ESE,112,3.5,6.9,66,0.00,CLR,,0.00,WeatherDisplay:10.37,2013-01-09 15:08:00,
2013-01-09 07:13:00,48.6,37.7,29.68,SE,135,4.0,5.8,66,0.00,CLR,,0.00,WeatherDisplay:10.37,2013-01-09 15:13:00,
2013-01-09 07:18:00,48.7,37.5,29.68,ESE,112,3.6,3.6,65,0.00,CLR,,0.00,WeatherDisplay:10.37,2013-01-09 15:18:00,
2013-01-09 07:23:00,48.7,37.5,29.67,ENE,68,3.2,5.8,65,0.00,CLR,,0.00,WeatherDisplay:10.37,2013-01-09 15:23:00,
2013-01-09 07:28:00,49.1,37.8,29.67,SE,135,3.5,5.8,65,0.00,CLR,,0.00,WeatherDisplay:10.37,2013-01-09 15:28:00,
2013-01-09 07:33:00,49.3,38.0,29.67,East,90,3.7,4.6,65,0.00,CLR,,0.00,WeatherDisplay:10.37,2013-01-09 15:33:00,
2013-01-09 07:38:00,49.8,38.5,29.67,SSE,158,3.3,3.3,65,0.00,CLR,,0.00,WeatherDisplay:10.37,2013-01-09 15:38:00,
2013-01-09 07:43:00,50.0,38.7,29.65,SSE,158,2.8,3.5,65,0.00,CLR,,0.00,WeatherDisplay:10.37,2013-01-09 15:43:00,
2013-01-09 07:48:00,50.0,38.3,29.65,SE,135,2.0,2.0,64,0.00,CLR,,0.00,WeatherDisplay:10.37,2013-01-09 15:48:00,
2013-01-09 07:53:00,50.0,38.3,29.65,ENE,68,0.8,1.1,64,0.00,CLR,,0.00,WeatherDisplay:10.37,2013-01-09 15:53:00,
2013-01-09 07:58:00,50.0,38.3,29.65,East,90,1.0,2.3,64,0.00,CLR,,0.00,WeatherDisplay:10.37,2013-01-09 15:58:00,
2013-01-09 08:03:00,50.2,38.5,29.64,SSE,158,2.2,3.5,64,0.00,CLR,,0.00,WeatherDisplay:10.37,2013-01-09 16:03:00,
2013-01-09 08:08:00,50.5,38.8,29.64,SSE,158,3.2,4.6,64,0.00,CLR,,0.00,WeatherDisplay:10.37,2013-01-09 16:08:00,
2013-01-09 08:13:00,51.3,39.1,29.64,West,270,3.7,6.9,63,0.00,CLR,,0.00,WeatherDisplay:10.37,2013-01-09 16:13:00,
2013-01-09 08:18:00,51.3,39.1,29.64,SE,135,3.6,5.8,63,0.00,CLR,,0.00,WeatherDisplay:10.37,2013-01-09 16:18:00,
2013-01-09 08:23:00,52.0,39.4,29.63,SE,135,3.6,3.6,62,0.00,CLR,,0.00,WeatherDisplay:10.37,2013-01-09 16:23:00,
2013-01-09 08:28:00,52.0,39.4,29.63,ESE,112,3.3,4.6,62,0.00,CLR,,0.00,WeatherDisplay:10.37,2013-01-09 16:28:00,
2013-01-09 08:33:00,52.0,39.4,29.63,ESE,112,3.5,6.9,62,0.00,CLR,,0.00,WeatherDisplay:10.37,2013-01-09 16:33:00,
2013-01-09 08:38:00,51.8,39.2,29.63,ESE,112,3.8,4.6,62,0.00,CLR,,0.00,WeatherDisplay:10.37,2013-01-09 16:38:00,
2013-01-09 08:43:00,52.0,39.4,29.62,East,90,3.5,4.6,62,0.00,CLR,,0.00,WeatherDisplay:10.37,2013-01-09 16:43:00,
2013-01-09 08:48:00,52.0,39.4,29.62,SE,135,3.3,4.6,62,0.00,CLR,,0.00,WeatherDisplay:10.37,2013-01-09 16:48:00,
2013-01-09 08:53:00,52.2,39.9,29.62,SE,135,2.6,2.6,63,0.00,CLR,,0.00,WeatherDisplay:10.37,2013-01-09 16:53:00,
2013-01-09 08:58:00,52.0,39.8,29.62,SE,135,1.7,2.3,63,0.00,CLR,,0.00,WeatherDisplay:10.37,2013-01-09 16:58:00,
2013-01-09 09:03:00,52.0,39.8,29.61,East,90,1.7,3.5,63,0.00,CLR,,0.00,WeatherDisplay:10.37,2013-01-09 17:03:00,
2013-01-09 09:08:00,52.0,39.8,29.61,East,90,2.4,2.4,63,0.00,CLR,,0.00,WeatherDisplay:10.37,2013-01-09 17:08:00,
2013-01-09 09:13:00,51.4,39.7,29.61,ESE,112,2.4,2.4,64,0.00,CLR,,0.00,WeatherDisplay:10.37,2013-01-09 17:13:00,
2013-01-09 09:18:00,51.4,39.7,29.61,SE,135,1.8,3.5,64,0.00,CLR,,0.00,WeatherDisplay:10.37,2013-01-09 17:18:00,
2013-01-09 09:23:00,51.3,39.5,29.61,SE,135,2.4,3.5,64,0.00,CLR,,0.00,WeatherDisplay:10.37,2013-01-09 17:23:00,
2013-01-09 09:28:00,51.3,39.9,29.61,SSW,202,3.0,4.6,65,0.00,CLR,,0.00,WeatherDisplay:10.37,2013-01-09 17:28:00,
2013-01-09 09:33:00,51.4,39.7,29.61,SSW,202,2.0,0.0,64,0.00,CLR,,0.00,WeatherDisplay:10.37,2013-01-09 17:33:00,
2013-01-09 09:38:00,51.6,40.2,29.61,SSW,202,1.1,1.1,65,0.00,CLR,,0.00,WeatherDisplay:10.37,2013-01-09 17:38:00,
2013-01-09 09:43:00,51.6,40.2,29.61,SW,225,1.5,4.6,65,0.00,CLR,,0.00,WeatherDisplay:10.37,2013-01-09 17:43:00,
2013-01-09 09:48:00,51.6,40.2,29.61,SW,225,2.2,2.2,65,0.00,CLR,,0.00,WeatherDisplay:10.37,2013-01-09 17:48:00,
2013-01-09 09:53:00,52.0,40.2,29.61,SSW,202,2.5,3.5,64,0.00,CLR,,0.00,WeatherDisplay:10.37,2013-01-09 17:53:00,
2013-01-09 09:58:00,52.2,40.3,29.61,SW,225,2.8,5.8,64,0.00,CLR,,0.00,WeatherDisplay:10.37,2013-01-09 17:58:00,
2013-01-09 10:03:00,52.3,40.5,29.62,SW,225,4.4,5.8,64,0.00,BKN,,0.00,WeatherDisplay:10.37,2013-01-09 18:03:00,
2013-01-09 10:08:00,52.5,40.3,29.62,WSW,248,4.7,4.7,63,0.00,BKN,,0.00,WeatherDisplay:10.37,2013-01-09 18:08:00,
2013-01-09 10:13:00,52.7,40.0,29.62,SSW,202,4.5,4.6,62,0.00,BKN,,0.00,WeatherDisplay:10.37,2013-01-09 18:13:00,
2013-01-09 10:18:00,52.9,40.2,29.62,SSW,202,4.4,6.9,62,0.00,BKN,,0.00,WeatherDisplay:10.37,2013-01-09 18:18:00,
2013-01-09 10:23:00,52.9,40.2,29.62,SSW,202,3.8,4.6,62,0.00,BKN,,0.00,WeatherDisplay:10.37,2013-01-09 18:23:00,
2013-01-09 10:28:00,52.9,40.2,29.62,SW,225,3.6,3.6,62,0.00,BKN,,0.00,WeatherDisplay:10.37,2013-01-09 18:28:00,
2013-01-09 10:33:00,53.4,40.3,29.62,South,180,3.6,5.8,61,0.00,BKN,,0.00,WeatherDisplay:10.37,2013-01-09 18:33:00,
2013-01-09 10:38:00,53.4,40.3,29.62,SW,225,4.0,5.8,61,0.00,BKN,,0.00,WeatherDisplay:10.37,2013-01-09 18:38:00,
2013-01-09 10:41:00,53.4,40.3,29.62,SW,225,4.7,5.8,61,0.00,BKN,,0.00,WeatherDisplay:10.37,2013-01-09 18:41:00,
2013-01-09 10:42:00,53.4,40.3,29.62,SW,225,4.7,4.7,61,0.00,BKN,,0.00,WeatherDisplay:10.37,2013-01-09 18:42:00,
2013-01-09 10:44:00,53.4,40.3,29.63,SW,225,4.6,5.8,61,0.00,BKN,,0.00,WeatherDisplay:10.37,2013-01-09 18:44:00,
2013-01-09 10:45:00,53.4,40.3,29.63,SW,225,4.4,5.8,61,0.00,BKN,,0.00,WeatherDisplay:10.37,2013-01-09 18:45:00,
2013-01-09 10:48:00,53.4,40.3,29.63,SSW,202,4.4,4.6,61,0.00,BKN,,0.00,WeatherDisplay:10.37,2013-01-09 18:48:00,
2013-01-09 10:50:00,53.4,40.3,29.63,SW,225,4.4,5.8,61,0.00,BKN,,0.00,WeatherDisplay:10.37,2013-01-09 18:50:00,
2013-01-09 10:55:00,53.4,39.4,29.63,SW,225,4.5,8.1,59,0.00,BKN,,0.00,WeatherDisplay:10.37,2013-01-09 18:55:00,
2013-01-09 11:00:00,53.4,38.1,29.63,South,180,5.8,16.1,56,0.00,BKN,,0.00,WeatherDisplay:10.37,2013-01-09 19:00:00,
2013-01-09 11:05:00,54.0,36.7,29.66,WSW,248,7.9,12.7,52,0.00,BKN,,0.00,WeatherDisplay:10.37,2013-01-09 19:05:00,
2013-01-09 11:10:00,54.1,36.9,29.66,WSW,248,9.5,13.8,52,0.00,BKN,,0.00,WeatherDisplay:10.37,2013-01-09 19:10:00,
2013-01-09 11:15:00,54.5,37.2,29.66,SW,225,9.9,13.8,52,0.00,BKN,,0.00,WeatherDisplay:10.37,2013-01-09 19:15:00,
2013-01-09 11:20:00,54.1,36.9,29.66,WSW,248,10.0,12.7,52,0.00,BKN,,0.00,WeatherDisplay:10.37,2013-01-09 19:20:00,
2013-01-09 11:25:00,53.8,37.0,29.65,WSW,248,10.4,10.4,53,0.00,BKN,,0.00,WeatherDisplay:10.37,2013-01-09 19:25:00,
2013-01-09 11:30:00,53.6,36.9,29.65,WSW,248,8.9,11.5,53,0.00,BKN,,0.00,WeatherDisplay:10.37,2013-01-09 19:30:00,
2013-01-09 11:35:00,53.8,36.6,29.65,WSW,248,7.8,9.2,52,0.00,BKN,,0.00,WeatherDisplay:10.37,2013-01-09 19:35:00,
2013-01-09 11:40:00,53.8,36.6,29.65,WSW,248,8.5,10.4,52,0.00,BKN,,0.00,WeatherDisplay:10.37,2013-01-09 19:40:00,
2013-01-09 11:45:00,53.6,36.4,29.63,WSW,248,9.0,13.8,52,0.00,BKN,,0.00,WeatherDisplay:10.37,2013-01-09 19:45:00,
2013-01-09 11:50:00,53.8,36.6,29.63,WSW,244,9.0,16.0,52,0.00,BKN,BKN,0.00,WeatherDisplay:10.37,2013-01-09 19:50:00,
2013-01-09 12:00:00,53.6,36.9,29.63,SW,225,10.0,15.0,53,0.00,BKN,BKN,0.00,WeatherDisplay:10.37,2013-01-09 20:00:00,
2013-01-09 12:10:00,53.6,36.9,29.63,WSW,248,10.0,16.0,53,0.00,BKN,BKN,0.00,WeatherDisplay:10.37,2013-01-09 20:10:00,
2013-01-09 12:20:00,52.7,37.0,29.63,West,259,10.0,16.0,55,0.00,BKN,BKN,0.00,WeatherDisplay:10.37,2013-01-09 20:20:00,
2013-01-09 12:30:00,52.2,36.9,29.65,WSW,239,10.0,18.0,56,0.00,BKN,BKN,0.00,WeatherDisplay:10.37,2013-01-09 20:30:00,
2013-01-09 12:40:00,51.6,36.4,29.65,WSW,252,10.0,16.0,56,0.00,BKN,BKN,0.00,WeatherDisplay:10.37,2013-01-09 20:40:00,
2013-01-09 12:50:00,51.2,36.5,29.65,SW,232,12.0,20.0,57,0.00,BKN,BKN,0.00,WeatherDisplay:10.37,2013-01-09 20:50:00,
2013-01-09 13:00:00,50.9,36.2,29.65,SW,218,13.0,20.0,57,0.00,BKN,BKN,0.00,WeatherDisplay:10.37,2013-01-09 21:00:00,
2013-01-09 13:10:00,50.5,35.9,29.64,SW,221,13.0,17.0,57,0.00,BKN,BKN,0.00,WeatherDisplay:10.37,2013-01-09 21:10:00,
2013-01-09 13:20:00,50.0,35.8,29.64,SW,221,9.0,16.0,58,0.00,BKN,BKN,0.00,WeatherDisplay:10.37,2013-01-09 21:20:00,
2013-01-09 13:30:00,49.5,36.6,29.65,WSW,237,12.0,14.0,61,0.00,BKN,BKN,0.00,WeatherDisplay:10.37,2013-01-09 21:30:00,
2013-01-09 13:40:00,49.3,36.8,29.65,SW,227,12.0,16.0,62,0.00,BKN,BKN,0.00,WeatherDisplay:10.37,2013-01-09 21:40:00,
2013-01-09 13:50:00,49.1,37.0,29.65,SSW,209,12.0,17.0,63,0.00,BKN,BKN,0.00,WeatherDisplay:10.37,2013-01-09 21:50:00,
2013-01-09 14:00:00,48.4,36.4,29.65,SW,223,13.0,18.0,63,0.00,BKN,BKN,0.00,WeatherDisplay:10.37,2013-01-09 22:00:00,
2013-01-09 14:10:00,48.2,36.6,29.67,SW,216,10.0,16.0,64,0.00,BKN,BKN,0.00,WeatherDisplay:10.37,2013-01-09 22:10:00,
2013-01-09 14:20:00,48.0,36.4,29.67,SW,231,12.0,15.0,64,0.00,BKN,BKN,0.00,WeatherDisplay:10.37,2013-01-09 22:20:00,
2013-01-09 14:30:00,47.8,36.2,29.69,SW,227,12.0,18.0,64,0.00,BKN,BKN,0.00,WeatherDisplay:10.37,2013-01-09 22:30:00,
2013-01-09 14:40:00,47.7,36.1,29.69,SW,227,10.0,18.0,64,0.00,BKN,BKN,0.00,WeatherDisplay:10.37,2013-01-09 22:40:00,
2013-01-09 14:50:00,47.6,36.1,29.72,SW,215,9.0,16.0,64,0.00,BKN,BKN,0.00,WeatherDisplay:10.37,2013-01-09 22:50:00,
2013-01-09 15:00:00,47.6,36.1,29.72,WSW,239,9.0,16.0,64,0.00,BKN,BKN,0.00,WeatherDisplay:10.37,2013-01-09 23:00:00,
2013-01-09 15:10:00,47.7,35.7,29.72,WSW,241,10.0,18.0,63,0.00,BKN,BKN,0.00,WeatherDisplay:10.37,2013-01-09 23:10:00,
2013-01-09 15:20:00,47.1,35.6,29.72,SW,226,8.0,16.0,64,0.00,BKN,BKN,0.00,WeatherDisplay:10.37,2013-01-09 23:20:00,
2013-01-09 15:30:00,47.1,35.5,29.73,SW,220,9.0,12.0,64,0.00,BKN,BKN,0.00,WeatherDisplay:10.37,2013-01-09 23:30:00,
2013-01-09 15:40:00,46.9,35.4,29.73,SW,223,9.0,12.0,64,0.00,BKN,BKN,0.00,WeatherDisplay:10.37,2013-01-09 23:40:00,
2013-01-09 15:50:00,46.4,34.9,29.73,SW,216,9.0,12.0,64,0.00,BKN,BKN,0.00,WeatherDisplay:10.37,2013-01-09 23:50:00,
2013-01-09 16:00:00,46.2,34.7,29.73,WSW,241,7.0,12.0,64,0.00,BKN,BKN,0.00,WeatherDisplay:10.37,2013-01-10 00:00:00,
2013-01-09 16:10:00,45.8,34.4,29.73,SW,218,6.0,6.0,64,0.00,BKN,BKN,0.00,WeatherDisplay:10.37,2013-01-10 00:10:00,
2013-01-09 16:20:00,45.5,34.4,29.73,SW,215,5.0,9.0,65,0.00,BKN,BKN,0.00,WeatherDisplay:10.37,2013-01-10 00:20:00,
2013-01-09 16:30:00,45.1,34.1,29.76,SW,222,3.0,6.0,65,0.00,BKN,BKN,0.00,WeatherDisplay:10.37,2013-01-10 00:30:00,
2013-01-09 16:40:00,45.0,33.5,29.76,SW,234,6.0,9.0,64,0.00,BKN,BKN,0.00,WeatherDisplay:10.37,2013-01-10 00:40:00,
2013-01-09 16:50:00,44.8,33.3,29.75,SW,231,7.0,12.0,64,0.00,BKN,BKN,0.00,WeatherDisplay:10.37,2013-01-10 00:50:00,
2013-01-09 17:00:00,44.4,33.4,29.75,SW,230,7.0,12.0,65,0.00,BKN,BKN,0.00,WeatherDisplay:10.37,2013-01-10 01:00:00,
2013-01-09 17:10:00,44.1,33.0,29.76,WSW,239,7.0,8.0,65,0.00,BKN,BKN,0.00,WeatherDisplay:10.37,2013-01-10 01:10:00,
2013-01-09 17:20:00,44.1,33.0,29.76,SW,227,6.0,8.0,65,0.00,BKN,BKN,0.00,WeatherDisplay:10.37,2013-01-10 01:20:00,
2013-01-09 17:30:00,43.5,32.5,29.76,SSW,206,5.0,7.0,65,0.00,BKN,BKN,0.00,WeatherDisplay:10.37,2013-01-10 01:30:00,
2013-01-09 17:40:00,43.7,32.7,29.76,SW,223,6.0,10.0,65,0.00,BKN,BKN,0.00,WeatherDisplay:10.37,2013-01-10 01:40:00,
2013-01-09 17:50:00,43.7,32.3,29.76,SW,230,6.0,8.0,64,0.00,BKN,BKN,0.00,WeatherDisplay:10.37,2013-01-10 01:50:00,
2013-01-09 18:00:00,43.5,32.1,29.76,SW,229,6.0,9.0,64,0.00,BKN,BKN,0.00,WeatherDisplay:10.37,2013-01-10 02:00:00,
2013-01-09 18:10:00,43.5,32.1,29.76,SW,228,6.0,10.0,64,0.00,BKN,BKN,0.00,WeatherDisplay:10.37,2013-01-10 02:10:00,
2013-01-09 18:20:00,43.3,32.0,29.76,WSW,243,5.0,8.0,64,0.00,BKN,BKN,0.00,WeatherDisplay:10.37,2013-01-10 02:20:00,
2013-01-09 18:30:00,43.3,32.3,29.77,SW,232,5.0,6.0,65,0.00,BKN,BKN,0.00,WeatherDisplay:10.37,2013-01-10 02:30:00,
2013-01-09 18:40:00,43.0,32.0,29.77,SW,227,6.0,12.0,65,0.00,BKN,BKN,0.00,WeatherDisplay:10.37,2013-01-10 02:40:00,
2013-01-09 18:50:00,43.0,32.4,29.76,WSW,249,9.0,15.0,66,0.00,BKN,BKN,0.00,WeatherDisplay:10.37,2013-01-10 02:50:00,
2013-01-09 19:00:00,42.8,32.2,29.76,SW,232,7.0,10.0,66,0.00,BKN,BKN,0.00,WeatherDisplay:10.37,2013-01-10 03:00:00,
2013-01-09 19:10:00,42.8,32.2,29.76,West,273,5.0,7.0,66,0.00,OVC,OVC,0.00,WeatherDisplay:10.37,2013-01-10 03:10:00,
2013-01-09 19:20:00,42.6,32.0,29.76,West,263,3.0,9.0,66,0.00,OVC,OVC,0.00,WeatherDisplay:10.37,2013-01-10 03:20:00,
2013-01-09 19:25:00,42.6,32.0,29.81,SW,225,4.9,9.2,66,0.00,OVC,,0.00,WeatherDisplay:10.37,2013-01-10 03:25:00,
2013-01-09 19:30:00,42.6,31.7,29.81,WSW,248,6.9,12.7,65,0.00,OVC,,0.00,WeatherDisplay:10.37,2013-01-10 03:30:00,
2013-01-09 19:35:00,42.6,31.7,29.81,SW,225,6.3,8.1,65,0.00,OVC,,0.00,WeatherDisplay:10.37,2013-01-10 03:35:00,
2013-01-09 19:40:00,42.6,32.0,29.81,SW,225,6.2,9.3,66,0.00,OVC,,0.00,WeatherDisplay:10.37,2013-01-10 03:40:00,
2013-01-09 19:45:00,42.6,32.0,29.82,SW,225,7.1,9.2,66,0.00,OVC,,0.00,WeatherDisplay:10.37,2013-01-10 03:45:00,
2013-01-09 19:50:00,42.3,31.7,29.82,SSW,202,6.9,8.1,66,0.00,OVC,,0.00,WeatherDisplay:10.37,2013-01-10 03:50:00,
2013-01-09 19:55:00,42.1,31.9,29.82,SW,225,6.6,9.2,67,0.00,OVC,,0.00,WeatherDisplay:10.37,2013-01-10 03:55:00,
2013-01-09 20:00:00,42.3,32.1,29.82,WSW,248,6.4,8.1,67,0.00,OVC,,0.00,WeatherDisplay:10.37,2013-01-10 04:00:00,
2013-01-09 20:05:00,42.1,31.9,29.83,WSW,248,6.1,6.1,67,0.00,OVC,,0.00,WeatherDisplay:10.37,2013-01-10 04:05:00,
2013-01-09 20:10:00,42.1,31.9,29.83,WSW,248,5.8,6.9,67,0.00,OVC,,0.00,WeatherDisplay:10.37,2013-01-10 04:10:00,
2013-01-09 20:15:00,41.9,31.7,29.83,SSW,202,5.6,5.8,67,0.00,OVC,,0.00,WeatherDisplay:10.37,2013-01-10 04:15:00,
2013-01-09 20:20:00,41.9,31.7,29.83,WSW,248,5.3,8.1,67,0.00,OVC,,0.00,WeatherDisplay:10.37,2013-01-10 04:20:00,
2013-01-09 20:25:00,41.5,31.8,29.83,WSW,248,5.5,6.9,68,0.00,OVC,,0.00,WeatherDisplay:10.37,2013-01-10 04:25:00,
2013-01-09 20:30:00,41.5,31.4,29.83,WSW,248,5.8,8.1,67,0.00,OVC,,0.00,WeatherDisplay:10.37,2013-01-10 04:30:00,
2013-01-09 20:35:00,41.5,31.4,29.83,WSW,248,5.8,9.2,67,0.00,OVC,,0.00,WeatherDisplay:10.37,2013-01-10 04:35:00,
2013-01-09 20:40:00,41.7,31.6,29.83,ESE,112,5.9,9.2,67,0.00,OVC,,0.00,WeatherDisplay:10.37,2013-01-10 04:40:00,
2013-01-09 20:45:00,41.5,31.0,29.84,WSW,248,5.6,8.1,66,0.00,OVC,,0.00,WeatherDisplay:10.37,2013-01-10 04:45:00,
2013-01-09 20:50:00,41.4,30.8,29.84,WSW,248,5.1,5.8,66,0.00,OVC,,0.00,WeatherDisplay:10.37,2013-01-10 04:50:00,
2013-01-09 20:55:00,41.4,30.8,29.84,WSW,248,4.9,6.9,66,0.00,OVC,,0.00,WeatherDisplay:10.37,2013-01-10 04:55:00,
2013-01-09 21:00:00,41.4,30.8,29.84,SW,225,4.9,4.9,66,0.00,OVC,,0.00,WeatherDisplay:10.37,2013-01-10 05:00:00,
2013-01-09 21:03:00,41.4,30.8,29.84,SW,225,4.9,4.9,66,0.00,OVC,,0.00,WeatherDisplay:10.37,2013-01-10 05:03:00,
2013-01-09 21:08:00,41.4,30.8,29.84,SW,225,4.8,6.1,66,0.00,OVC,,0.00,WeatherDisplay:10.37,2013-01-10 05:08:00,
2013-01-09 21:13:00,41.0,30.5,29.84,WSW,248,4.1,4.6,66,0.00,FEW,,0.00,WeatherDisplay:10.37,2013-01-10 05:13:00,
2013-01-09 21:18:00,41.0,30.5,29.84,WSW,248,3.7,3.7,66,0.00,FEW,,0.00,WeatherDisplay:10.37,2013-01-10 05:18:00,
2013-01-09 21:23:00,40.8,30.3,29.85,WSW,248,3.7,4.6,66,0.00,FEW,,0.00,WeatherDisplay:10.37,2013-01-10 05:23:00,
2013-01-09 21:28:00,40.8,30.0,29.85,WNW,292,4.1,7.1,65,0.00,FEW,,0.00,WeatherDisplay:10.37,2013-01-10 05:28:00,
2013-01-09 21:33:00,40.8,30.0,29.85,West,270,4.1,5.8,65,0.00,FEW,,0.00,WeatherDisplay:10.37,2013-01-10 05:33:00,
2013-01-09 21:38:00,40.8,30.0,29.85,West,270,4.0,4.0,65,0.00,FEW,,0.00,WeatherDisplay:10.37,2013-01-10 05:38:00,
2013-01-09 21:43:00,40.8,30.0,29.86,WSW,248,3.2,3.7,65,0.00,FEW,,0.00,WeatherDisplay:10.37,2013-01-10 05:43:00,
2013-01-09 21:48:00,40.6,30.2,29.86,WSW,248,2.6,3.9,66,0.00,FEW,,0.00,WeatherDisplay:10.37,2013-01-10 05:48:00,
2013-01-09 21:53:00,40.5,30.0,29.86,SW,225,3.5,4.6,66,0.00,FEW,,0.00,WeatherDisplay:10.37,2013-01-10 05:53:00,
2013-01-09 21:58:00,40.5,30.0,29.86,SSW,202,3.7,3.7,66,0.00,FEW,,0.00,WeatherDisplay:10.37,2013-01-10 05:58:00,
2013-01-09 22:03:00,40.1,29.6,29.86,SW,225,4.0,7.0,66,0.00,CLR,,0.00,WeatherDisplay:10.37,2013-01-10 06:03:00,
2013-01-09 22:08:00,40.1,29.6,29.86,WSW,248,4.7,8.1,66,0.00,CLR,,0.00,WeatherDisplay:10.37,2013-01-10 06:08:00,
2013-01-09 22:13:00,40.1,30.0,29.86,SSW,202,5.3,5.8,67,0.00,CLR,,0.00,WeatherDisplay:10.37,2013-01-10 06:13:00,
2013-01-09 22:18:00,39.9,29.8,29.86,SW,225,4.8,8.1,67,0.00,CLR,,0.00,WeatherDisplay:10.37,2013-01-10 06:18:00,
2013-01-09 22:23:00,39.7,29.7,29.87,WSW,248,4.9,9.2,67,0.00,CLR,,0.00,WeatherDisplay:10.37,2013-01-10 06:23:00,
2013-01-09 22:28:00,39.7,29.7,29.87,WSW,248,5.8,9.2,67,0.00,CLR,,0.00,WeatherDisplay:10.37,2013-01-10 06:28:00,
2013-01-09 22:33:00,39.6,29.5,29.87,WSW,248,5.8,8.1,67,0.00,CLR,,0.00,WeatherDisplay:10.37,2013-01-10 06:33:00,
2013-01-09 22:38:00,39.7,29.7,29.87,SE,135,5.2,5.2,67,0.00,CLR,,0.00,WeatherDisplay:10.37,2013-01-10 06:38:00,
2013-01-09 22:43:00,39.4,29.3,29.89,SSW,202,3.0,3.0,67,0.00,CLR,,0.00,WeatherDisplay:10.37,2013-01-10 06:43:00,
2013-01-09 22:48:00,39.2,29.2,29.89,WSW,248,1.7,2.3,67,0.00,CLR,,0.00,WeatherDisplay:10.37,2013-01-10 06:48:00,
2013-01-09 22:53:00,39.0,29.0,29.89,SSW,202,1.8,3.5,67,0.00,CLR,,0.00,WeatherDisplay:10.37,2013-01-10 06:53:00,
2013-01-09 22:58:00,39.0,29.0,29.89,SW,225,2.4,3.5,67,0.00,CLR,,0.00,WeatherDisplay:10.37,2013-01-10 06:58:00,
2013-01-09 23:03:00,39.0,29.0,29.89,SW,225,3.1,4.6,67,0.00,CLR,,0.00,WeatherDisplay:10.37,2013-01-10 07:03:00,
2013-01-09 23:08:00,38.8,28.8,29.89,WSW,248,2.9,2.9,67,0.00,CLR,,0.00,WeatherDisplay:10.37,2013-01-10 07:08:00,
2013-01-09 23:13:00,38.7,28.6,29.89,WSW,248,2.5,5.2,67,0.00,CLR,,0.00,WeatherDisplay:10.37,2013-01-10 07:13:00,
2013-01-09 23:18:00,38.7,28.6,29.89,WSW,248,3.1,5.8,67,0.00,CLR,,0.00,WeatherDisplay:10.37,2013-01-10 07:18:00,
2013-01-09 23:23:00,38.7,28.6,29.90,SW,225,4.4,5.8,67,0.00,CLR,,0.00,WeatherDisplay:10.37,2013-01-10 07:23:00,
2013-01-09 23:28:00,38.5,28.5,29.90,WSW,248,4.3,5.8,67,0.00,CLR,,0.00,WeatherDisplay:10.37,2013-01-10 07:28:00,
2013-01-09 23:33:00,38.7,28.6,29.90,WSW,248,3.6,3.6,67,0.00,CLR,,0.00,WeatherDisplay:10.37,2013-01-10 07:33:00,
2013-01-09 23:38:00,38.5,28.5,29.90,WSW,248,2.9,5.1,67,0.00,CLR,,0.00,WeatherDisplay:10.37,2013-01-10 07:38:00,
2013-01-09 23:43:00,38.3,28.3,29.90,SW,225,3.2,4.9,67,0.00,CLR,,0.00,WeatherDisplay:10.37,2013-01-10 07:43:00,
2013-01-09 23:48:00,38.3,27.9,29.90,WSW,248,3.3,3.5,66,0.00,CLR,,0.00,WeatherDisplay:10.37,2013-01-10 07:48:00,
2013-01-09 23:53:00,38.1,27.8,29.90,WSW,248,3.2,5.8,66,0.00,CLR,,0.00,WeatherDisplay:10.37,2013-01-10 07:53:00,
2013-01-09 23:58:00,38.3,27.9,29.90,SW,225,2.6,3.5,66,0.00,CLR,,0.00,WeatherDisplay:10.37,2013-01-10 07:58:00,